Norient Star — 9HRV9 — position and weather

sailwx.info

Track history (hours):
 
Tides and Currents Weather Stations Pressure Air Temp Water Temp Dewpoint Dewpoint Depression Visibility Wind Speed Wind Dir Waves Ship Positions

Norient Star

Last reported at 2017-Jan-21 02:23 UTC. Time now 2017-Jan-21 21:49 UTC.
Position N 52°37' E 002°55'.

Length 180 m; draft 7.3 m.

Type: Ship. MMSI: 249434000.

Date/timePositionNaut miles runAvg speedWind from/ knotsBaromVisibWave heightAir tempDewpointWater temp
2017-Jan-21 02:23N 52°37' E 002°55'14 7.4
2017-Jan-21 00:33N 52°49' E 003°01'7 6.2
2017-Jan-20 23:24N 52°52' E 002°50'5 5.8
2017-Jan-20 22:34N 52°47' E 002°46'3 2.7
2017-Jan-20 21:33N 52°45' E 002°47'2 1.9
2017-Jan-20 20:34N 52°43' E 002°49'2 2.1
2017-Jan-20 19:31N 52°41' E 002°51'6 6.3
2017-Jan-20 18:32N 52°37' E 002°44'1 1.1
2017-Jan-20 17:33N 52°37' E 002°46'1 1.2
2017-Jan-20 16:27N 52°37' E 002°48'1 1.7
2017-Jan-20 15:33N 52°38' E 002°49'2 1.6
2017-Jan-20 14:21N 52°40' E 002°51'1 1.3
2017-Jan-20 13:31N 52°40' E 002°53'4 4.6
2017-Jan-20 12:33N 52°41' E 002°45'1 0.6
2017-Jan-20 11:26N 52°41' E 002°46'1 0.6
2017-Jan-20 10:34N 52°41' E 002°47'1 1.0
2017-Jan-20 09:11N 52°39' E 002°48'2 0.9
2017-Jan-20 07:24N 52°38' E 002°49'1 0.5
2017-Jan-20 05:33N 52°38' E 002°50'0 0.4
2017-Jan-20 04:21N 52°37' E 002°50'0 0.4
2017-Jan-20 03:31N 52°37' E 002°50'0 0.4
2017-Jan-20 02:33N 52°37' E 002°51'0 0.4
2017-Jan-20 01:28N 52°38' E 002°51'0 0.4
2017-Jan-20 00:30N 52°38' E 002°51'6 5.3
2017-Jan-19 23:22N 52°32' E 002°49'8 4.7
2017-Jan-19 21:33N 52°24' E 002°51'12 9.1
2017-Jan-19 20:13N 52°18' E 003°08'7 9.0
2017-Jan-19 19:29N 52°14' E 003°17'8 9.0
2017-Jan-19 18:33N 52°10' E 003°29'8 8.0
2017-Jan-19 17:32N 52°07' E 003°41'0 0.3
2017-Jan-19 16:31N 52°07' E 003°41'0 0.0
2017-Jan-19 15:31N 52°07' E 003°41'0 0.0
2017-Jan-19 14:28N 52°07' E 003°41'0 0.0
2017-Jan-19 13:34N 52°07' E 003°41'0 0.0
2017-Jan-19 12:31N 52°07' E 003°41'0 0.0
2017-Jan-19 11:28N 52°07' E 003°41'0 0.1
2017-Jan-19 10:31N 52°07' E 003°41'0 0.1
2017-Jan-19 09:31N 52°07' E 003°41'0 0.0
2017-Jan-19 08:22N 52°07' E 003°41'0 0.1
2017-Jan-19 07:31N 52°07' E 003°41'0 0.0
2017-Jan-19 06:31N 52°07' E 003°41'0 0.0
2017-Jan-19 05:28N 52°07' E 003°41'0 0.1
2017-Jan-19 04:31N 52°07' E 003°41'0 0.1
2017-Jan-19 03:32N 52°07' E 003°41'0 0.0
2017-Jan-19 02:31N 52°07' E 003°41'0 0.0
2017-Jan-19 01:28N 52°07' E 003°41'0 0.0
2017-Jan-19 00:32N 52°07' E 003°41'0 0.0
2017-Jan-18 23:34N 52°07' E 003°41'0 0.0
2017-Jan-18 22:28N 52°07' E 003°41'0 0.1
2017-Jan-18 21:31N 52°07' E 003°41'0 0.0
2017-Jan-18 19:34N 52°07' E 003°41'0 0.0
2017-Jan-18 18:28N 52°07' E 003°41'0 0.1
2017-Jan-18 16:22N 52°07' E 003°41'0 0.1
2017-Jan-18 15:30N 52°07' E 003°41'0 0.0
2017-Jan-18 14:30N 52°07' E 003°41'0 0.0
2017-Jan-18 13:12N 52°07' E 003°41'0 0.0
2017-Jan-18 12:31N 52°07' E 003°41'0 0.0
2017-Jan-18 11:28N 52°07' E 003°41'0 0.1
2017-Jan-18 10:22N 52°07' E 003°41'0 0.1
2017-Jan-18 09:30N 52°07' E 003°41'0 0.0
2017-Jan-18 08:28N 52°07' E 003°41'0 0.0
2017-Jan-18 07:24N 52°07' E 003°41'0 0.0
2017-Jan-18 05:28N 52°07' E 003°41'0 0.0
2017-Jan-18 04:19N 52°07' E 003°41'0 0.1
2017-Jan-18 03:18N 52°07' E 003°41'0 0.0
2017-Jan-18 02:28N 52°07' E 003°41'0 0.0
2017-Jan-18 01:12N 52°07' E 003°41'0 0.0
2017-Jan-18 00:30N 52°07' E 003°41'0 0.0
2017-Jan-17 23:30N 52°07' E 003°41'0 0.0
2017-Jan-17 22:28N 52°07' E 003°41'0 0.1
2017-Jan-17 21:16N 52°07' E 003°41'0 0.1
2017-Jan-17 20:30N 52°07' E 003°41'0 0.0
2017-Jan-17 19:16N 52°07' E 003°41'0 0.0
2017-Jan-17 17:26N 52°07' E 003°41'0 0.0
2017-Jan-17 16:29N 52°07' E 003°41'0 0.2
2017-Jan-17 15:29N 52°07' E 003°41'0 0.1
2017-Jan-17 14:29N 52°07' E 003°41'0 0.0
2017-Jan-17 13:17N 52°07' E 003°41'0 0.0
2017-Jan-17 12:29N 52°07' E 003°41'0 0.0
2017-Jan-17 11:32N 52°07' E 003°41'0 0.0
2017-Jan-17 10:32N 52°07' E 003°41'0 0.5
2017-Jan-17 09:33N 52°08' E 003°41'0 0.3
2017-Jan-17 08:25N 52°08' E 003°42'0 0.3
2017-Jan-17 07:31N 52°07' E 003°42'0 0.0
2017-Jan-17 06:31N 52°07' E 003°42'0 0.0
2017-Jan-17 05:28N 52°07' E 003°42'0 0.0
2017-Jan-17 04:25N 52°07' E 003°42'0 0.0
2017-Jan-17 03:31N 52°07' E 003°42'0 0.1
2017-Jan-17 02:28N 52°07' E 003°42'0 0.0
2017-Jan-17 01:31N 52°07' E 003°42'0 0.0
2017-Jan-17 00:28N 52°07' E 003°42'0 0.0
2017-Jan-16 23:31N 52°07' E 003°42'0 0.0
2017-Jan-16 22:25N 52°07' E 003°42'0 0.0
2017-Jan-16 21:25N 52°07' E 003°42'0 0.0
2017-Jan-16 20:28N 52°07' E 003°42'0 0.1
2017-Jan-16 19:25N 52°07' E 003°42'0 0.1
2017-Jan-16 17:25N 52°07' E 003°42'0 0.1
2017-Jan-16 16:28N 52°07' E 003°42'0 0.1
2017-Jan-16 15:33N 52°07' E 003°42'0 0.1
2017-Jan-16 13:07N 52°07' E 003°42'0 0.0
2017-Jan-16 11:07N 52°07' E 003°42'0 0.1
2017-Jan-16 10:31N 52°07' E 003°42'0 0.0
2017-Jan-16 08:19N 52°07' E 003°42'0 0.1
2017-Jan-16 06:06N 52°07' E 003°42'0 0.0
2017-Jan-16 04:13N 52°07' E 003°42'0 0.0
2017-Jan-16 03:15N 52°07' E 003°42'0 0.2
2017-Jan-16 02:33N 52°07' E 003°42'0 0.1
2017-Jan-16 01:31N 52°07' E 003°42'0 0.0
2017-Jan-16 00:33N 52°07' E 003°42'0 0.0
2017-Jan-15 23:33N 52°07' E 003°42'0 0.0
2017-Jan-15 22:30N 52°07' E 003°42'0 0.0
2017-Jan-15 21:31N 52°07' E 003°42'0 0.1
2017-Jan-15 19:21N 52°07' E 003°42'0 0.0
2017-Jan-15 16:25N 52°07' E 003°42'0 0.1
2017-Jan-15 14:33N 52°07' E 003°42'0 0.1
2017-Jan-15 13:30N 52°07' E 003°42'0 0.1
2017-Jan-15 12:03N 52°07' E 003°42'0 0.0
2017-Jan-15 11:27N 52°07' E 003°42'0 0.0
2017-Jan-15 10:33N 52°07' E 003°42'0 0.1
2017-Jan-15 09:19N 52°07' E 003°42'0 0.1
2017-Jan-15 08:33N 52°07' E 003°42'0 0.0
2017-Jan-15 07:33N 52°07' E 003°42'0 0.1
2017-Jan-15 06:25N 52°07' E 003°42'0 0.0
2017-Jan-15 04:12N 52°07' E 003°42'0 0.0
2017-Jan-15 03:24N 52°07' E 003°42'0 0.1
2017-Jan-15 02:33N 52°07' E 003°42'0 0.0
2017-Jan-15 01:25N 52°07' E 003°42'0 0.0
2017-Jan-15 00:33N 52°07' E 003°42'0 0.0
2017-Jan-14 23:27N 52°07' E 003°42'0 0.0
2017-Jan-14 22:33N 52°07' E 003°42'0 0.0
2017-Jan-14 21:33N 52°07' E 003°42'0 0.0
2017-Jan-14 20:33N 52°07' E 003°42'0 0.0
2017-Jan-14 19:33N 52°07' E 003°42'0 0.0
2017-Jan-14 18:25N 52°07' E 003°42'0 0.0
2017-Jan-14 17:31N 52°07' E 003°42'0 0.0
2017-Jan-14 16:27N 52°07' E 003°42'0 0.1
2017-Jan-14 15:31N 52°07' E 003°42'0 0.0
2017-Jan-14 14:31N 52°07' E 003°42'0 0.0
2017-Jan-14 13:29N 52°07' E 003°42'0 0.3
2017-Jan-14 12:33N 52°07' E 003°42'0 0.3
2017-Jan-14 11:33N 52°07' E 003°42'0 0.2
2017-Jan-14 10:20N 52°07' E 003°42'0 0.0
2017-Jan-14 09:32N 52°07' E 003°42'0 0.1
2017-Jan-14 08:32N 52°08' E 003°42'0 0.0
2017-Jan-14 07:32N 52°08' E 003°42'0 0.0
2017-Jan-14 06:32N 52°08' E 003°42'0 0.0
2017-Jan-14 05:29N 52°08' E 003°42'0 0.1
2017-Jan-14 03:30N 52°08' E 003°42'1 0.2
2017-Jan-13 23:33N 52°07' E 003°41'0 0.2
2017-Jan-13 22:31N 52°07' E 003°41'0 0.1
2017-Jan-13 21:33N 52°07' E 003°41'0 0.2
2017-Jan-13 20:31N 52°07' E 003°41'1 0.8
2017-Jan-13 19:33N 52°07' E 003°42'0 0.1
2017-Jan-13 18:29N 52°07' E 003°42'0 0.3
2017-Jan-13 17:31N 52°08' E 003°41'0 0.0
2017-Jan-13 16:33N 52°08' E 003°41'0 0.0
2017-Jan-13 15:33N 52°08' E 003°41'0 0.0
2017-Jan-13 12:33N 52°08' E 003°41'0 0.0
2017-Jan-13 11:33N 52°08' E 003°41'0 0.0
2017-Jan-13 10:27N 52°08' E 003°41'0 0.0
2017-Jan-13 09:30N 52°08' E 003°41'0 0.1
2017-Jan-13 08:15N 52°08' E 003°41'0 0.1
2017-Jan-13 07:33N 52°08' E 003°41'0 0.0
2017-Jan-13 06:27N 52°08' E 003°41'0 0.1
2017-Jan-13 05:15N 52°08' E 003°41'0 0.1
2017-Jan-13 04:31N 52°08' E 003°41'0 0.0
2017-Jan-13 03:28N 52°08' E 003°41'0 0.0
2017-Jan-13 02:13N 52°08' E 003°41'0 0.0
2017-Jan-13 01:31N 52°08' E 003°41'0 0.0
2017-Jan-13 00:31N 52°08' E 003°41'0 0.1
2017-Jan-12 23:25N 52°08' E 003°41'0 0.0
2017-Jan-12 22:25N 52°08' E 003°41'0 0.1
2017-Jan-12 19:31N 52°08' E 003°41'0 0.2
2017-Jan-12 18:25N 52°08' E 003°41'0 0.0
2017-Jan-12 16:19N 52°08' E 003°41'0 0.0
2017-Jan-12 14:31N 52°08' E 003°41'0 0.0
2017-Jan-12 13:31N 52°08' E 003°41'0 0.0
2017-Jan-12 12:22N 52°08' E 003°41'0 0.0
2017-Jan-12 09:10N 52°08' E 003°41'0 0.0
2017-Jan-12 08:18N 52°08' E 003°41'0 0.0
2017-Jan-12 07:33N 52°08' E 003°41'0 0.0
2017-Jan-11 19:16N 52°08' E 003°41'0 0.2
2017-Jan-11 18:28N 52°08' E 003°41'1 0.1
2017-Jan-11 05:31N 52°07' E 003°41'9 9.3
2017-Jan-11 04:33N 52°03' E 003°54'8 7.8
2017-Jan-11 03:34N 51°58' E 004°04'1 1.0
2017-Jan-11 02:33N 51°58' E 004°02'  
Track history (hours):
 
Tides and Currents Weather Stations Pressure Air Temp Water Temp Dewpoint Dewpoint Depression Visibility Wind Speed Wind Dir Waves Ship Positions

Norient Star

Last reported at 2017-Jan-21 02:23 UTC. Time now 2017-Jan-21 21:49 UTC.
Position N 52°37' E 002°55'.

Length 180 m; draft 7.3 m.

Type: Ship. MMSI: 249434000.

Date/timePositionNaut miles runAvg speedWind from/ knotsBaromVisibWave heightAir tempDewpointWater temp
2017-Jan-21 02:23N 52°37' E 002°55'14 7.4
2017-Jan-21 00:33N 52°49' E 003°01'7 6.2
2017-Jan-20 23:24N 52°52' E 002°50'5 5.8
2017-Jan-20 22:34N 52°47' E 002°46'3 2.7
2017-Jan-20 21:33N 52°45' E 002°47'2 1.9
2017-Jan-20 20:34N 52°43' E 002°49'2 2.1
2017-Jan-20 19:31N 52°41' E 002°51'6 6.3
2017-Jan-20 18:32N 52°37' E 002°44'1 1.1
2017-Jan-20 17:33N 52°37' E 002°46'1 1.2
2017-Jan-20 16:27N 52°37' E 002°48'1 1.7
2017-Jan-20 15:33N 52°38' E 002°49'2 1.6
2017-Jan-20 14:21N 52°40' E 002°51'1 1.3
2017-Jan-20 13:31N 52°40' E 002°53'4 4.6
2017-Jan-20 12:33N 52°41' E 002°45'1 0.6
2017-Jan-20 11:26N 52°41' E 002°46'1 0.6
2017-Jan-20 10:34N 52°41' E 002°47'1 1.0
2017-Jan-20 09:11N 52°39' E 002°48'2 0.9
2017-Jan-20 07:24N 52°38' E 002°49'1 0.5
2017-Jan-20 05:33N 52°38' E 002°50'0 0.4
2017-Jan-20 04:21N 52°37' E 002°50'0 0.4
2017-Jan-20 03:31N 52°37' E 002°50'0 0.4
2017-Jan-20 02:33N 52°37' E 002°51'0 0.4
2017-Jan-20 01:28N 52°38' E 002°51'0 0.4
2017-Jan-20 00:30N 52°38' E 002°51'6 5.3
2017-Jan-19 23:22N 52°32' E 002°49'8 4.7
2017-Jan-19 21:33N 52°24' E 002°51'12 9.1
2017-Jan-19 20:13N 52°18' E 003°08'7 9.0
2017-Jan-19 19:29N 52°14' E 003°17'8 9.0
2017-Jan-19 18:33N 52°10' E 003°29'8 8.0
2017-Jan-19 17:32N 52°07' E 003°41'0 0.3
2017-Jan-19 16:31N 52°07' E 003°41'0 0.0
2017-Jan-19 15:31N 52°07' E 003°41'0 0.0
2017-Jan-19 14:28N 52°07' E 003°41'0 0.0
2017-Jan-19 13:34N 52°07' E 003°41'0 0.0
2017-Jan-19 12:31N 52°07' E 003°41'0 0.0
2017-Jan-19 11:28N 52°07' E 003°41'0 0.1
2017-Jan-19 10:31N 52°07' E 003°41'0 0.1
2017-Jan-19 09:31N 52°07' E 003°41'0 0.0
2017-Jan-19 08:22N 52°07' E 003°41'0 0.1
2017-Jan-19 07:31N 52°07' E 003°41'0 0.0
2017-Jan-19 06:31N 52°07' E 003°41'0 0.0
2017-Jan-19 05:28N 52°07' E 003°41'0 0.1
2017-Jan-19 04:31N 52°07' E 003°41'0 0.1
2017-Jan-19 03:32N 52°07' E 003°41'0 0.0
2017-Jan-19 02:31N 52°07' E 003°41'0 0.0
2017-Jan-19 01:28N 52°07' E 003°41'0 0.0
2017-Jan-19 00:32N 52°07' E 003°41'0 0.0
2017-Jan-18 23:34N 52°07' E 003°41'0 0.0
2017-Jan-18 22:28N 52°07' E 003°41'0 0.1
2017-Jan-18 21:31N 52°07' E 003°41'0 0.0
2017-Jan-18 19:34N 52°07' E 003°41'0 0.0
2017-Jan-18 18:28N 52°07' E 003°41'0 0.1
2017-Jan-18 16:22N 52°07' E 003°41'0 0.1
2017-Jan-18 15:30N 52°07' E 003°41'0 0.0
2017-Jan-18 14:30N 52°07' E 003°41'0 0.0
2017-Jan-18 13:12N 52°07' E 003°41'0 0.0
2017-Jan-18 12:31N 52°07' E 003°41'0 0.0
2017-Jan-18 11:28N 52°07' E 003°41'0 0.1
2017-Jan-18 10:22N 52°07' E 003°41'0 0.1
2017-Jan-18 09:30N 52°07' E 003°41'0 0.0
2017-Jan-18 08:28N 52°07' E 003°41'0 0.0
2017-Jan-18 07:24N 52°07' E 003°41'0 0.0
2017-Jan-18 05:28N 52°07' E 003°41'0 0.0
2017-Jan-18 04:19N 52°07' E 003°41'0 0.1
2017-Jan-18 03:18N 52°07' E 003°41'0 0.0
2017-Jan-18 02:28N 52°07' E 003°41'0 0.0
2017-Jan-18 01:12N 52°07' E 003°41'0 0.0
2017-Jan-18 00:30N 52°07' E 003°41'0 0.0
2017-Jan-17 23:30N 52°07' E 003°41'0 0.0
2017-Jan-17 22:28N 52°07' E 003°41'0 0.1
2017-Jan-17 21:16N 52°07' E 003°41'0 0.1
2017-Jan-17 20:30N 52°07' E 003°41'0 0.0
2017-Jan-17 19:16N 52°07' E 003°41'0 0.0
2017-Jan-17 17:26N 52°07' E 003°41'0 0.0
2017-Jan-17 16:29N 52°07' E 003°41'0 0.2
2017-Jan-17 15:29N 52°07' E 003°41'0 0.1
2017-Jan-17 14:29N 52°07' E 003°41'0 0.0
2017-Jan-17 13:17N 52°07' E 003°41'0 0.0
2017-Jan-17 12:29N 52°07' E 003°41'0 0.0
2017-Jan-17 11:32N 52°07' E 003°41'0 0.0
2017-Jan-17 10:32N 52°07' E 003°41'0 0.5
2017-Jan-17 09:33N 52°08' E 003°41'0 0.3
2017-Jan-17 08:25N 52°08' E 003°42'0 0.3
2017-Jan-17 07:31N 52°07' E 003°42'0 0.0
2017-Jan-17 06:31N 52°07' E 003°42'0 0.0
2017-Jan-17 05:28N 52°07' E 003°42'0 0.0
2017-Jan-17 04:25N 52°07' E 003°42'0 0.0
2017-Jan-17 03:31N 52°07' E 003°42'0 0.1
2017-Jan-17 02:28N 52°07' E 003°42'0 0.0
2017-Jan-17 01:31N 52°07' E 003°42'0 0.0
2017-Jan-17 00:28N 52°07' E 003°42'0 0.0
2017-Jan-16 23:31N 52°07' E 003°42'0 0.0
2017-Jan-16 22:25N 52°07' E 003°42'0 0.0
2017-Jan-16 21:25N 52°07' E 003°42'0 0.0
2017-Jan-16 20:28N 52°07' E 003°42'0 0.1
2017-Jan-16 19:25N 52°07' E 003°42'0 0.1
2017-Jan-16 17:25N 52°07' E 003°42'0 0.1
2017-Jan-16 16:28N 52°07' E 003°42'0 0.1
2017-Jan-16 15:33N 52°07' E 003°42'0 0.1
2017-Jan-16 13:07N 52°07' E 003°42'0 0.0
2017-Jan-16 11:07N 52°07' E 003°42'0 0.1
2017-Jan-16 10:31N 52°07' E 003°42'0 0.0
2017-Jan-16 08:19N 52°07' E 003°42'0 0.1
2017-Jan-16 06:06N 52°07' E 003°42'0 0.0
2017-Jan-16 04:13N 52°07' E 003°42'0 0.0
2017-Jan-16 03:15N 52°07' E 003°42'0 0.2
2017-Jan-16 02:33N 52°07' E 003°42'0 0.1
2017-Jan-16 01:31N 52°07' E 003°42'0 0.0
2017-Jan-16 00:33N 52°07' E 003°42'0 0.0
2017-Jan-15 23:33N 52°07' E 003°42'0 0.0
2017-Jan-15 22:30N 52°07' E 003°42'0 0.0
2017-Jan-15 21:31N 52°07' E 003°42'0 0.1
2017-Jan-15 19:21N 52°07' E 003°42'0 0.0
2017-Jan-15 16:25N 52°07' E 003°42'0 0.1
2017-Jan-15 14:33N 52°07' E 003°42'0 0.1
2017-Jan-15 13:30N 52°07' E 003°42'0 0.1
2017-Jan-15 12:03N 52°07' E 003°42'0 0.0
2017-Jan-15 11:27N 52°07' E 003°42'0 0.0
2017-Jan-15 10:33N 52°07' E 003°42'0 0.1
2017-Jan-15 09:19N 52°07' E 003°42'0 0.1
2017-Jan-15 08:33N 52°07' E 003°42'0 0.0
2017-Jan-15 07:33N 52°07' E 003°42'0 0.1
2017-Jan-15 06:25N 52°07' E 003°42'0 0.0
2017-Jan-15 04:12N 52°07' E 003°42'0 0.0
2017-Jan-15 03:24N 52°07' E 003°42'0 0.1
2017-Jan-15 02:33N 52°07' E 003°42'0 0.0
2017-Jan-15 01:25N 52°07' E 003°42'0 0.0
2017-Jan-15 00:33N 52°07' E 003°42'0 0.0
2017-Jan-14 23:27N 52°07' E 003°42'0 0.0
2017-Jan-14 22:33N 52°07' E 003°42'0 0.0
2017-Jan-14 21:33N 52°07' E 003°42'0 0.0
2017-Jan-14 20:33N 52°07' E 003°42'0 0.0
2017-Jan-14 19:33N 52°07' E 003°42'0 0.0
2017-Jan-14 18:25N 52°07' E 003°42'0 0.0
2017-Jan-14 17:31N 52°07' E 003°42'0 0.0
2017-Jan-14 16:27N 52°07' E 003°42'0 0.1
2017-Jan-14 15:31N 52°07' E 003°42'0 0.0
2017-Jan-14 14:31N 52°07' E 003°42'0 0.0
2017-Jan-14 13:29N 52°07' E 003°42'0 0.3
2017-Jan-14 12:33N 52°07' E 003°42'0 0.3
2017-Jan-14 11:33N 52°07' E 003°42'0 0.2
2017-Jan-14 10:20N 52°07' E 003°42'0 0.0
2017-Jan-14 09:32N 52°07' E 003°42'0 0.1
2017-Jan-14 08:32N 52°08' E 003°42'0 0.0
2017-Jan-14 07:32N 52°08' E 003°42'0 0.0
2017-Jan-14 06:32N 52°08' E 003°42'0 0.0
2017-Jan-14 05:29N 52°08' E 003°42'0 0.1
2017-Jan-14 03:30N 52°08' E 003°42'1 0.2
2017-Jan-13 23:33N 52°07' E 003°41'0 0.2
2017-Jan-13 22:31N 52°07' E 003°41'0 0.1
2017-Jan-13 21:33N 52°07' E 003°41'0 0.2
2017-Jan-13 20:31N 52°07' E 003°41'1 0.8
2017-Jan-13 19:33N 52°07' E 003°42'0 0.1
2017-Jan-13 18:29N 52°07' E 003°42'0 0.3
2017-Jan-13 17:31N 52°08' E 003°41'0 0.0
2017-Jan-13 16:33N 52°08' E 003°41'0 0.0
2017-Jan-13 15:33N 52°08' E 003°41'0 0.0
2017-Jan-13 12:33N 52°08' E 003°41'0 0.0
2017-Jan-13 11:33N 52°08' E 003°41'0 0.0
2017-Jan-13 10:27N 52°08' E 003°41'0 0.0
2017-Jan-13 09:30N 52°08' E 003°41'0 0.1
2017-Jan-13 08:15N 52°08' E 003°41'0 0.1
2017-Jan-13 07:33N 52°08' E 003°41'0 0.0
2017-Jan-13 06:27N 52°08' E 003°41'0 0.1
2017-Jan-13 05:15N 52°08' E 003°41'0 0.1
2017-Jan-13 04:31N 52°08' E 003°41'0 0.0
2017-Jan-13 03:28N 52°08' E 003°41'0 0.0
2017-Jan-13 02:13N 52°08' E 003°41'0 0.0
2017-Jan-13 01:31N 52°08' E 003°41'0 0.0
2017-Jan-13 00:31N 52°08' E 003°41'0 0.1
2017-Jan-12 23:25N 52°08' E 003°41'0 0.0
2017-Jan-12 22:25N 52°08' E 003°41'0 0.1
2017-Jan-12 19:31N 52°08' E 003°41'0 0.2
2017-Jan-12 18:25N 52°08' E 003°41'0 0.0
2017-Jan-12 16:19N 52°08' E 003°41'0 0.0
2017-Jan-12 14:31N 52°08' E 003°41'0 0.0
2017-Jan-12 13:31N 52°08' E 003°41'0 0.0
2017-Jan-12 12:22N 52°08' E 003°41'0 0.0
2017-Jan-12 09:10N 52°08' E 003°41'0 0.0
2017-Jan-12 08:18N 52°08' E 003°41'0 0.0
2017-Jan-12 07:33N 52°08' E 003°41'0 0.0
2017-Jan-11 19:16N 52°08' E 003°41'0 0.2
2017-Jan-11 18:28N 52°08' E 003°41'1 0.1
2017-Jan-11 05:31N 52°07' E 003°41'9 9.3
2017-Jan-11 04:33N 52°03' E 003°54'8 7.8
2017-Jan-11 03:34N 51°58' E 004°04'1 1.0
2017-Jan-11 02:33N 51°58' E 004°02'  

Dump ship's entire track history